sensor_id;sensor_type;location;lat;lon;timestamp;P1;durP1;ratioP1;P2;durP2;ratioP2
13981;SDS011;7065;50.880;5.502;2024-01-15T00:02:18;46.10;;;23.02;;
13981;SDS011;7065;50.880;5.502;2024-01-15T00:04:43;45.95;;;22.63;;
13981;SDS011;7065;50.880;5.502;2024-01-15T00:07:09;41.03;;;21.50;;
13981;SDS011;7065;50.880;5.502;2024-01-15T00:09:35;43.58;;;22.35;;
13981;SDS011;7065;50.880;5.502;2024-01-15T00:12:01;41.92;;;22.25;;
13981;SDS011;7065;50.880;5.502;2024-01-15T00:14:27;47.70;;;23.13;;
13981;SDS011;7065;50.880;5.502;2024-01-15T00:16:53;41.22;;;21.33;;
13981;SDS011;7065;50.880;5.502;2024-01-15T00:19:23;41.42;;;21.58;;
13981;SDS011;7065;50.880;5.502;2024-01-15T00:21:49;46.78;;;22.50;;
13981;SDS011;7065;50.880;5.502;2024-01-15T00:24:15;41.85;;;22.33;;
13981;SDS011;7065;50.880;5.502;2024-01-15T00:26:41;45.47;;;23.13;;
13981;SDS011;7065;50.880;5.502;2024-01-15T00:29:07;48.22;;;22.10;;
13981;SDS011;7065;50.880;5.502;2024-01-15T00:31:33;45.45;;;22.75;;
13981;SDS011;7065;50.880;5.502;2024-01-15T00:33:59;43.53;;;23.65;;
13981;SDS011;7065;50.880;5.502;2024-01-15T00:36:26;46.22;;;23.25;;
13981;SDS011;7065;50.880;5.502;2024-01-15T00:38:52;45.60;;;23.80;;
13981;SDS011;7065;50.880;5.502;2024-01-15T00:41:18;43.92;;;22.92;;
13981;SDS011;7065;50.880;5.502;2024-01-15T00:43:44;47.75;;;22.73;;
13981;SDS011;7065;50.880;5.502;2024-01-15T00:46:10;48.25;;;23.38;;
13981;SDS011;7065;50.880;5.502;2024-01-15T00:48:36;48.90;;;22.38;;
13981;SDS011;7065;50.880;5.502;2024-01-15T00:51:02;53.13;;;24.25;;
13981;SDS011;7065;50.880;5.502;2024-01-15T00:53:29;52.30;;;25.13;;
13981;SDS011;7065;50.880;5.502;2024-01-15T00:55:55;44.92;;;23.95;;
13981;SDS011;7065;50.880;5.502;2024-01-15T00:58:20;49.63;;;25.58;;
13981;SDS011;7065;50.880;5.502;2024-01-15T01:00:46;54.28;;;27.17;;
13981;SDS011;7065;50.880;5.502;2024-01-15T01:03:12;46.97;;;24.17;;
13981;SDS011;7065;50.880;5.502;2024-01-15T01:05:38;58.55;;;26.98;;
13981;SDS011;7065;50.880;5.502;2024-01-15T01:08:03;52.72;;;26.52;;
13981;SDS011;7065;50.880;5.502;2024-01-15T01:10:30;52.45;;;26.52;;
13981;SDS011;7065;50.880;5.502;2024-01-15T01:12:55;59.13;;;27.98;;
13981;SDS011;7065;50.880;5.502;2024-01-15T01:15:21;58.80;;;27.85;;
13981;SDS011;7065;50.880;5.502;2024-01-15T01:17:48;60.30;;;28.25;;
13981;SDS011;7065;50.880;5.502;2024-01-15T01:20:13;62.20;;;27.88;;
13981;SDS011;7065;50.880;5.502;2024-01-15T01:22:40;59.25;;;28.20;;
13981;SDS011;7065;50.880;5.502;2024-01-15T01:25:06;63.83;;;28.50;;
13981;SDS011;7065;50.880;5.502;2024-01-15T01:27:32;64.72;;;29.67;;
13981;SDS011;7065;50.880;5.502;2024-01-15T01:29:58;56.83;;;28.10;;
13981;SDS011;7065;50.880;5.502;2024-01-15T01:32:24;61.13;;;28.58;;
13981;SDS011;7065;50.880;5.502;2024-01-15T01:34:49;55.63;;;26.98;;
13981;SDS011;7065;50.880;5.502;2024-01-15T01:37:15;58.40;;;27.50;;
13981;SDS011;7065;50.880;5.502;2024-01-15T01:39:41;58.83;;;26.70;;
13981;SDS011;7065;50.880;5.502;2024-01-15T01:42:08;54.70;;;27.20;;
13981;SDS011;7065;50.880;5.502;2024-01-15T01:44:33;51.42;;;26.25;;
13981;SDS011;7065;50.880;5.502;2024-01-15T01:46:59;56.13;;;26.50;;
13981;SDS011;7065;50.880;5.502;2024-01-15T01:49:26;55.13;;;27.65;;
13981;SDS011;7065;50.880;5.502;2024-01-15T01:51:53;54.45;;;27.90;;
13981;SDS011;7065;50.880;5.502;2024-01-15T01:54:22;55.55;;;26.25;;
13981;SDS011;7065;50.880;5.502;2024-01-15T01:56:49;52.13;;;25.77;;
13981;SDS011;7065;50.880;5.502;2024-01-15T01:59:16;49.45;;;25.52;;
13981;SDS011;7065;50.880;5.502;2024-01-15T02:01:42;52.80;;;25.58;;
13981;SDS011;7065;50.880;5.502;2024-01-15T02:04:10;53.20;;;25.98;;
13981;SDS011;7065;50.880;5.502;2024-01-15T02:06:36;47.05;;;24.83;;
13981;SDS011;7065;50.880;5.502;2024-01-15T02:09:02;46.63;;;24.25;;
13981;SDS011;7065;50.880;5.502;2024-01-15T02:11:29;46.28;;;24.33;;
13981;SDS011;7065;50.880;5.502;2024-01-15T02:13:55;52.92;;;25.65;;
13981;SDS011;7065;50.880;5.502;2024-01-15T02:16:20;49.58;;;23.42;;
13981;SDS011;7065;50.880;5.502;2024-01-15T02:18:46;43.20;;;22.83;;
13981;SDS011;7065;50.880;5.502;2024-01-15T02:21:12;43.45;;;22.85;;
13981;SDS011;7065;50.880;5.502;2024-01-15T02:23:38;46.90;;;23.52;;
13981;SDS011;7065;50.880;5.502;2024-01-15T02:26:06;43.72;;;22.42;;
13981;SDS011;7065;50.880;5.502;2024-01-15T02:28:34;45.17;;;23.67;;
13981;SDS011;7065;50.880;5.502;2024-01-15T02:30:59;41.97;;;22.35;;
13981;SDS011;7065;50.880;5.502;2024-01-15T02:33:25;47.13;;;22.95;;
13981;SDS011;7065;50.880;5.502;2024-01-15T02:35:51;45.85;;;22.45;;
13981;SDS011;7065;50.880;5.502;2024-01-15T02:38:17;50.47;;;22.33;;
13981;SDS011;7065;50.880;5.502;2024-01-15T02:40:43;44.88;;;23.25;;
13981;SDS011;7065;50.880;5.502;2024-01-15T02:43:10;45.72;;;23.00;;
13981;SDS011;7065;50.880;5.502;2024-01-15T02:45:37;45.33;;;22.02;;
13981;SDS011;7065;50.880;5.502;2024-01-15T02:48:02;41.58;;;23.48;;
13981;SDS011;7065;50.880;5.502;2024-01-15T02:50:28;40.40;;;20.98;;
13981;SDS011;7065;50.880;5.502;2024-01-15T02:52:54;40.38;;;21.13;;
13981;SDS011;7065;50.880;5.502;2024-01-15T02:55:19;39.55;;;21.67;;
13981;SDS011;7065;50.880;5.502;2024-01-15T02:57:45;40.13;;;21.65;;
13981;SDS011;7065;50.880;5.502;2024-01-15T03:00:11;44.03;;;21.95;;
13981;SDS011;7065;50.880;5.502;2024-01-15T03:02:37;42.70;;;22.38;;
13981;SDS011;7065;50.880;5.502;2024-01-15T03:05:08;39.92;;;21.35;;
13981;SDS011;7065;50.880;5.502;2024-01-15T03:07:34;39.70;;;20.40;;
13981;SDS011;7065;50.880;5.502;2024-01-15T03:10:01;38.42;;;20.20;;
13981;SDS011;7065;50.880;5.502;2024-01-15T03:12:26;34.33;;;19.77;;
13981;SDS011;7065;50.880;5.502;2024-01-15T03:14:52;34.15;;;19.63;;
13981;SDS011;7065;50.880;5.502;2024-01-15T03:17:18;40.03;;;21.33;;
13981;SDS011;7065;50.880;5.502;2024-01-15T03:19:44;38.40;;;21.27;;
13981;SDS011;7065;50.880;5.502;2024-01-15T03:22:10;37.55;;;20.60;;
13981;SDS011;7065;50.880;5.502;2024-01-15T03:24:36;37.15;;;20.67;;
13981;SDS011;7065;50.880;5.502;2024-01-15T03:27:02;36.13;;;19.55;;
13981;SDS011;7065;50.880;5.502;2024-01-15T03:29:27;36.20;;;20.23;;
13981;SDS011;7065;50.880;5.502;2024-01-15T03:31:53;33.63;;;19.15;;
13981;SDS011;7065;50.880;5.502;2024-01-15T03:34:19;35.30;;;19.67;;
13981;SDS011;7065;50.880;5.502;2024-01-15T03:36:44;33.13;;;18.50;;
13981;SDS011;7065;50.880;5.502;2024-01-15T03:39:10;35.03;;;19.90;;
13981;SDS011;7065;50.880;5.502;2024-01-15T03:41:36;32.67;;;18.13;;
13981;SDS011;7065;50.880;5.502;2024-01-15T03:44:02;32.45;;;18.48;;
13981;SDS011;7065;50.880;5.502;2024-01-15T03:46:27;38.17;;;19.48;;
13981;SDS011;7065;50.880;5.502;2024-01-15T03:48:54;36.05;;;19.27;;
13981;SDS011;7065;50.880;5.502;2024-01-15T03:51:20;39.20;;;19.60;;
13981;SDS011;7065;50.880;5.502;2024-01-15T03:53:45;36.75;;;19.63;;
13981;SDS011;7065;50.880;5.502;2024-01-15T03:56:11;37.90;;;20.80;;
13981;SDS011;7065;50.880;5.502;2024-01-15T03:58:37;34.15;;;19.77;;
13981;SDS011;7065;50.880;5.502;2024-01-15T04:01:03;33.72;;;19.60;;
13981;SDS011;7065;50.880;5.502;2024-01-15T04:03:32;36.42;;;17.25;;
13981;SDS011;7065;50.880;5.502;2024-01-15T04:05:58;28.92;;;15.82;;
13981;SDS011;7065;50.880;5.502;2024-01-15T04:08:23;32.58;;;17.55;;
13981;SDS011;7065;50.880;5.502;2024-01-15T04:10:49;32.55;;;17.50;;
13981;SDS011;7065;50.880;5.502;2024-01-15T04:13:14;30.15;;;15.30;;
13981;SDS011;7065;50.880;5.502;2024-01-15T04:15:40;29.08;;;15.73;;
13981;SDS011;7065;50.880;5.502;2024-01-15T04:18:06;29.75;;;16.52;;
13981;SDS011;7065;50.880;5.502;2024-01-15T04:20:31;27.83;;;16.48;;
13981;SDS011;7065;50.880;5.502;2024-01-15T04:22:57;33.45;;;18.60;;
13981;SDS011;7065;50.880;5.502;2024-01-15T04:25:23;30.70;;;16.25;;
13981;SDS011;7065;50.880;5.502;2024-01-15T04:27:48;33.40;;;15.02;;
13981;SDS011;7065;50.880;5.502;2024-01-15T04:30:15;30.40;;;16.80;;
13981;SDS011;7065;50.880;5.502;2024-01-15T04:32:40;34.67;;;16.27;;
13981;SDS011;7065;50.880;5.502;2024-01-15T04:35:06;31.17;;;14.95;;
13981;SDS011;7065;50.880;5.502;2024-01-15T04:37:33;28.08;;;16.17;;
13981;SDS011;7065;50.880;5.502;2024-01-15T04:39:59;30.42;;;15.35;;
13981;SDS011;7065;50.880;5.502;2024-01-15T04:42:24;27.63;;;15.60;;
13981;SDS011;7065;50.880;5.502;2024-01-15T04:44:50;25.20;;;13.95;;
13981;SDS011;7065;50.880;5.502;2024-01-15T04:47:16;26.80;;;16.10;;
13981;SDS011;7065;50.880;5.502;2024-01-15T04:49:41;26.45;;;13.40;;
13981;SDS011;7065;50.880;5.502;2024-01-15T04:52:07;27.38;;;14.95;;
13981;SDS011;7065;50.880;5.502;2024-01-15T04:54:35;29.67;;;15.05;;
13981;SDS011;7065;50.880;5.502;2024-01-15T04:57:01;25.58;;;14.23;;
13981;SDS011;7065;50.880;5.502;2024-01-15T04:59:27;23.10;;;13.23;;
13981;SDS011;7065;50.880;5.502;2024-01-15T05:01:53;26.95;;;14.00;;
13981;SDS011;7065;50.880;5.502;2024-01-15T05:04:19;26.13;;;13.43;;
13981;SDS011;7065;50.880;5.502;2024-01-15T05:06:45;25.50;;;13.20;;
13981;SDS011;7065;50.880;5.502;2024-01-15T05:09:11;28.40;;;14.77;;
13981;SDS011;7065;50.880;5.502;2024-01-15T05:11:38;28.67;;;14.82;;
13981;SDS011;7065;50.880;5.502;2024-01-15T05:14:04;30.52;;;15.48;;
13981;SDS011;7065;50.880;5.502;2024-01-15T05:16:30;29.50;;;15.10;;
13981;SDS011;7065;50.880;5.502;2024-01-15T05:18:56;28.95;;;15.35;;
13981;SDS011;7065;50.880;5.502;2024-01-15T05:21:21;29.45;;;15.70;;
13981;SDS011;7065;50.880;5.502;2024-01-15T05:23:47;30.30;;;16.70;;
13981;SDS011;7065;50.880;5.502;2024-01-15T05:26:13;27.73;;;14.23;;
13981;SDS011;7065;50.880;5.502;2024-01-15T05:28:40;31.77;;;16.35;;
13981;SDS011;7065;50.880;5.502;2024-01-15T05:31:07;38.15;;;16.52;;
13981;SDS011;7065;50.880;5.502;2024-01-15T05:33:35;38.17;;;17.58;;
13981;SDS011;7065;50.880;5.502;2024-01-15T05:36:01;33.35;;;16.75;;
13981;SDS011;7065;50.880;5.502;2024-01-15T05:38:27;37.90;;;18.88;;
13981;SDS011;7065;50.880;5.502;2024-01-15T05:40:53;28.10;;;15.32;;
13981;SDS011;7065;50.880;5.502;2024-01-15T05:43:19;38.30;;;18.67;;
13981;SDS011;7065;50.880;5.502;2024-01-15T05:45:44;30.33;;;16.67;;
13981;SDS011;7065;50.880;5.502;2024-01-15T05:48:10;32.00;;;17.60;;
13981;SDS011;7065;50.880;5.502;2024-01-15T05:50:37;34.25;;;18.83;;
13981;SDS011;7065;50.880;5.502;2024-01-15T05:53:03;35.03;;;18.30;;
13981;SDS011;7065;50.880;5.502;2024-01-15T05:55:29;38.33;;;19.90;;
13981;SDS011;7065;50.880;5.502;2024-01-15T05:57:56;39.90;;;19.98;;
13981;SDS011;7065;50.880;5.502;2024-01-15T06:00:21;36.55;;;20.20;;
13981;SDS011;7065;50.880;5.502;2024-01-15T06:02:47;37.30;;;18.15;;
13981;SDS011;7065;50.880;5.502;2024-01-15T06:05:13;41.20;;;19.73;;
13981;SDS011;7065;50.880;5.502;2024-01-15T06:07:38;38.40;;;19.77;;
13981;SDS011;7065;50.880;5.502;2024-01-15T06:10:04;40.55;;;19.08;;
13981;SDS011;7065;50.880;5.502;2024-01-15T06:12:30;34.88;;;19.15;;
13981;SDS011;7065;50.880;5.502;2024-01-15T06:14:57;40.65;;;20.23;;
13981;SDS011;7065;50.880;5.502;2024-01-15T06:17:23;35.92;;;19.80;;
13981;SDS011;7065;50.880;5.502;2024-01-15T06:19:49;34.95;;;19.58;;
13981;SDS011;7065;50.880;5.502;2024-01-15T06:22:14;44.25;;;20.05;;
13981;SDS011;7065;50.880;5.502;2024-01-15T06:24:40;38.90;;;19.42;;
13981;SDS011;7065;50.880;5.502;2024-01-15T06:27:06;40.50;;;20.27;;
13981;SDS011;7065;50.880;5.502;2024-01-15T06:29:32;38.72;;;20.73;;
13981;SDS011;7065;50.880;5.502;2024-01-15T06:31:58;38.50;;;18.17;;
13981;SDS011;7065;50.880;5.502;2024-01-15T06:34:23;36.10;;;17.25;;
13981;SDS011;7065;50.880;5.502;2024-01-15T06:36:49;39.13;;;22.35;;
13981;SDS011;7065;50.880;5.502;2024-01-15T06:39:15;42.97;;;23.52;;
13981;SDS011;7065;50.880;5.502;2024-01-15T06:41:40;40.60;;;22.90;;
13981;SDS011;7065;50.880;5.502;2024-01-15T06:44:11;41.60;;;23.30;;
13981;SDS011;7065;50.880;5.502;2024-01-15T06:46:43;37.13;;;21.98;;
13981;SDS011;7065;50.880;5.502;2024-01-15T06:49:09;38.03;;;22.33;;
13981;SDS011;7065;50.880;5.502;2024-01-15T06:51:36;36.75;;;22.27;;
13981;SDS011;7065;50.880;5.502;2024-01-15T06:54:01;35.88;;;21.55;;
13981;SDS011;7065;50.880;5.502;2024-01-15T06:56:27;33.75;;;21.15;;
13981;SDS011;7065;50.880;5.502;2024-01-15T06:58:53;36.45;;;22.95;;
13981;SDS011;7065;50.880;5.502;2024-01-15T07:01:18;34.28;;;20.65;;
13981;SDS011;7065;50.880;5.502;2024-01-15T07:03:44;30.00;;;19.27;;
13981;SDS011;7065;50.880;5.502;2024-01-15T07:06:10;29.13;;;17.92;;
13981;SDS011;7065;50.880;5.502;2024-01-15T07:08:37;28.58;;;17.17;;
13981;SDS011;7065;50.880;5.502;2024-01-15T07:11:05;26.05;;;16.17;;
13981;SDS011;7065;50.880;5.502;2024-01-15T07:13:31;24.80;;;15.52;;
13981;SDS011;7065;50.880;5.502;2024-01-15T07:15:58;22.17;;;14.73;;
13981;SDS011;7065;50.880;5.502;2024-01-15T07:18:24;26.67;;;14.93;;
13981;SDS011;7065;50.880;5.502;2024-01-15T07:20:50;22.55;;;13.68;;
13981;SDS011;7065;50.880;5.502;2024-01-15T07:23:16;22.20;;;14.63;;
13981;SDS011;7065;50.880;5.502;2024-01-15T07:25:42;24.33;;;14.35;;
13981;SDS011;7065;50.880;5.502;2024-01-15T07:28:08;20.58;;;13.73;;
13981;SDS011;7065;50.880;5.502;2024-01-15T07:30:34;20.83;;;14.07;;
13981;SDS011;7065;50.880;5.502;2024-01-15T07:33:03;22.10;;;14.25;;
13981;SDS011;7065;50.880;5.502;2024-01-15T07:35:29;18.77;;;13.32;;
13981;SDS011;7065;50.880;5.502;2024-01-15T07:37:55;19.20;;;12.07;;
13981;SDS011;7065;50.880;5.502;2024-01-15T07:40:21;22.00;;;13.00;;
13981;SDS011;7065;50.880;5.502;2024-01-15T07:42:46;16.52;;;11.73;;
13981;SDS011;7065;50.880;5.502;2024-01-15T07:45:12;20.38;;;13.02;;
13981;SDS011;7065;50.880;5.502;2024-01-15T07:47:38;22.80;;;13.52;;
13981;SDS011;7065;50.880;5.502;2024-01-15T07:50:04;16.75;;;11.40;;
13981;SDS011;7065;50.880;5.502;2024-01-15T07:52:30;17.30;;;11.60;;
13981;SDS011;7065;50.880;5.502;2024-01-15T07:54:56;16.17;;;11.50;;
13981;SDS011;7065;50.880;5.502;2024-01-15T07:57:24;17.23;;;10.82;;
13981;SDS011;7065;50.880;5.502;2024-01-15T07:59:50;16.85;;;10.68;;
13981;SDS011;7065;50.880;5.502;2024-01-15T08:02:16;17.23;;;11.02;;
13981;SDS011;7065;50.880;5.502;2024-01-15T08:04:42;14.35;;;10.57;;
13981;SDS011;7065;50.880;5.502;2024-01-15T08:07:08;15.48;;;10.57;;
13981;SDS011;7065;50.880;5.502;2024-01-15T08:09:34;16.73;;;9.52;;
13981;SDS011;7065;50.880;5.502;2024-01-15T08:11:59;14.57;;;9.60;;
13981;SDS011;7065;50.880;5.502;2024-01-15T08:14:25;13.20;;;9.27;;
13981;SDS011;7065;50.880;5.502;2024-01-15T08:16:51;12.15;;;7.60;;
13981;SDS011;7065;50.880;5.502;2024-01-15T08:19:17;14.85;;;9.52;;
13981;SDS011;7065;50.880;5.502;2024-01-15T08:21:44;15.02;;;8.55;;
13981;SDS011;7065;50.880;5.502;2024-01-15T08:24:10;15.70;;;8.52;;
13981;SDS011;7065;50.880;5.502;2024-01-15T08:26:36;14.57;;;7.65;;
13981;SDS011;7065;50.880;5.502;2024-01-15T08:29:02;12.70;;;8.13;;
13981;SDS011;7065;50.880;5.502;2024-01-15T08:31:27;11.88;;;8.05;;
13981;SDS011;7065;50.880;5.502;2024-01-15T08:33:53;10.77;;;7.15;;
13981;SDS011;7065;50.880;5.502;2024-01-15T08:36:19;10.88;;;7.05;;
13981;SDS011;7065;50.880;5.502;2024-01-15T08:38:44;10.65;;;6.30;;
13981;SDS011;7065;50.880;5.502;2024-01-15T08:41:10;11.80;;;5.40;;
13981;SDS011;7065;50.880;5.502;2024-01-15T08:43:36;9.43;;;5.57;;
13981;SDS011;7065;50.880;5.502;2024-01-15T08:46:02;10.43;;;5.45;;
13981;SDS011;7065;50.880;5.502;2024-01-15T08:48:28;9.15;;;6.13;;
13981;SDS011;7065;50.880;5.502;2024-01-15T08:50:54;8.23;;;5.30;;
13981;SDS011;7065;50.880;5.502;2024-01-15T08:53:20;9.90;;;4.93;;
13981;SDS011;7065;50.880;5.502;2024-01-15T08:55:46;9.05;;;4.80;;
13981;SDS011;7065;50.880;5.502;2024-01-15T08:58:13;12.35;;;4.78;;
13981;SDS011;7065;50.880;5.502;2024-01-15T09:00:40;7.68;;;4.55;;
13981;SDS011;7065;50.880;5.502;2024-01-15T09:03:06;10.35;;;4.80;;
13981;SDS011;7065;50.880;5.502;2024-01-15T09:05:33;10.48;;;5.20;;
13981;SDS011;7065;50.880;5.502;2024-01-15T09:07:59;8.10;;;5.38;;
13981;SDS011;7065;50.880;5.502;2024-01-15T09:10:24;9.13;;;5.25;;
13981;SDS011;7065;50.880;5.502;2024-01-15T09:12:50;11.07;;;5.00;;
13981;SDS011;7065;50.880;5.502;2024-01-15T09:15:16;13.75;;;6.00;;
13981;SDS011;7065;50.880;5.502;2024-01-15T09:17:42;10.38;;;6.32;;
13981;SDS011;7065;50.880;5.502;2024-01-15T09:20:08;13.73;;;6.78;;
13981;SDS011;7065;50.880;5.502;2024-01-15T09:22:35;13.50;;;7.18;;
13981;SDS011;7065;50.880;5.502;2024-01-15T09:25:04;9.00;;;6.05;;
13981;SDS011;7065;50.880;5.502;2024-01-15T09:27:30;12.05;;;7.13;;
13981;SDS011;7065;50.880;5.502;2024-01-15T09:29:56;13.13;;;6.90;;
13981;SDS011;7065;50.880;5.502;2024-01-15T09:32:21;11.13;;;7.07;;
13981;SDS011;7065;50.880;5.502;2024-01-15T09:34:47;13.93;;;8.00;;
13981;SDS011;7065;50.880;5.502;2024-01-15T09:37:14;13.10;;;8.02;;
13981;SDS011;7065;50.880;5.502;2024-01-15T09:39:40;12.98;;;8.35;;
13981;SDS011;7065;50.880;5.502;2024-01-15T09:42:05;14.55;;;8.50;;
13981;SDS011;7065;50.880;5.502;2024-01-15T09:44:32;16.30;;;9.50;;
13981;SDS011;7065;50.880;5.502;2024-01-15T09:46:58;13.07;;;9.23;;
13981;SDS011;7065;50.880;5.502;2024-01-15T09:49:24;16.05;;;10.30;;
13981;SDS011;7065;50.880;5.502;2024-01-15T09:51:50;14.98;;;9.48;;
13981;SDS011;7065;50.880;5.502;2024-01-15T09:54:16;20.92;;;10.98;;
13981;SDS011;7065;50.880;5.502;2024-01-15T09:56:45;16.85;;;10.82;;
13981;SDS011;7065;50.880;5.502;2024-01-15T09:59:13;13.82;;;10.32;;
13981;SDS011;7065;50.880;5.502;2024-01-15T10:01:43;14.95;;;10.10;;
13981;SDS011;7065;50.880;5.502;2024-01-15T10:04:12;15.40;;;10.52;;
13981;SDS011;7065;50.880;5.502;2024-01-15T10:06:38;15.25;;;10.05;;
13981;SDS011;7065;50.880;5.502;2024-01-15T10:09:07;15.65;;;9.60;;
13981;SDS011;7065;50.880;5.502;2024-01-15T10:11:33;14.95;;;9.55;;
13981;SDS011;7065;50.880;5.502;2024-01-15T10:13:59;16.23;;;9.07;;
13981;SDS011;7065;50.880;5.502;2024-01-15T10:16:25;15.13;;;9.07;;
13981;SDS011;7065;50.880;5.502;2024-01-15T10:18:51;12.65;;;7.82;;
13981;SDS011;7065;50.880;5.502;2024-01-15T10:21:17;11.20;;;8.38;;
13981;SDS011;7065;50.880;5.502;2024-01-15T10:23:42;13.43;;;8.25;;
13981;SDS011;7065;50.880;5.502;2024-01-15T10:26:09;12.10;;;7.47;;
13981;SDS011;7065;50.880;5.502;2024-01-15T10:28:37;13.88;;;8.10;;
13981;SDS011;7065;50.880;5.502;2024-01-15T10:31:03;10.63;;;6.80;;
13981;SDS011;7065;50.880;5.502;2024-01-15T10:33:29;12.82;;;6.55;;
13981;SDS011;7065;50.880;5.502;2024-01-15T10:35:58;12.77;;;7.43;;
13981;SDS011;7065;50.880;5.502;2024-01-15T10:38:25;11.00;;;7.20;;
13981;SDS011;7065;50.880;5.502;2024-01-15T10:40:52;13.30;;;7.00;;
13981;SDS011;7065;50.880;5.502;2024-01-15T10:43:18;13.13;;;6.93;;
13981;SDS011;7065;50.880;5.502;2024-01-15T10:45:45;14.98;;;6.60;;
13981;SDS011;7065;50.880;5.502;2024-01-15T10:48:11;13.07;;;6.10;;
13981;SDS011;7065;50.880;5.502;2024-01-15T10:50:37;10.73;;;5.53;;
13981;SDS011;7065;50.880;5.502;2024-01-15T10:53:04;13.20;;;5.60;;
13981;SDS011;7065;50.880;5.502;2024-01-15T10:55:33;12.20;;;5.78;;
13981;SDS011;7065;50.880;5.502;2024-01-15T10:58:00;10.15;;;4.63;;
13981;SDS011;7065;50.880;5.502;2024-01-15T11:00:28;11.98;;;4.35;;
13981;SDS011;7065;50.880;5.502;2024-01-15T11:02:54;10.93;;;4.50;;
13981;SDS011;7065;50.880;5.502;2024-01-15T11:05:21;8.85;;;3.95;;
13981;SDS011;7065;50.880;5.502;2024-01-15T11:07:50;9.15;;;3.80;;
13981;SDS011;7065;50.880;5.502;2024-01-15T11:18:28;6.90;;;2.38;;
13981;SDS011;7065;50.880;5.502;2024-01-15T11:26:29;10.82;;;2.92;;
13981;SDS011;7065;50.880;5.502;2024-01-15T11:29:10;5.28;;;2.63;;
13981;SDS011;7065;50.880;5.502;2024-01-15T11:35:12;6.72;;;2.25;;
13981;SDS011;7065;50.880;5.502;2024-01-15T11:37:18;11.63;;;2.63;;
13981;SDS011;7065;50.880;5.502;2024-01-15T11:39:44;9.07;;;2.45;;
13981;SDS011;7065;50.880;5.502;2024-01-15T11:42:13;11.68;;;2.28;;
13981;SDS011;7065;50.880;5.502;2024-01-15T11:44:40;11.23;;;2.13;;
13981;SDS011;7065;50.880;5.502;2024-01-15T11:47:07;3.53;;;2.08;;
13981;SDS011;7065;50.880;5.502;2024-01-15T11:52:06;7.22;;;1.83;;
13981;SDS011;7065;50.880;5.502;2024-01-15T11:54:33;9.05;;;1.77;;
13981;SDS011;7065;50.880;5.502;2024-01-15T11:57:09;6.22;;;2.20;;
13981;SDS011;7065;50.880;5.502;2024-01-15T11:59:40;8.02;;;2.60;;
13981;SDS011;7065;50.880;5.502;2024-01-15T12:02:08;6.55;;;2.63;;
13981;SDS011;7065;50.880;5.502;2024-01-15T12:04:36;10.20;;;2.63;;
13981;SDS011;7065;50.880;5.502;2024-01-15T12:07:02;9.93;;;2.78;;
13981;SDS011;7065;50.880;5.502;2024-01-15T12:09:28;10.93;;;3.47;;
13981;SDS011;7065;50.880;5.502;2024-01-15T12:11:56;10.77;;;3.45;;
13981;SDS011;7065;50.880;5.502;2024-01-15T12:14:30;6.20;;;2.80;;
13981;SDS011;7065;50.880;5.502;2024-01-15T12:16:57;6.78;;;2.40;;
13981;SDS011;7065;50.880;5.502;2024-01-15T12:19:23;7.93;;;2.85;;
13981;SDS011;7065;50.880;5.502;2024-01-15T12:21:50;6.68;;;3.08;;
13981;SDS011;7065;50.880;5.502;2024-01-15T12:24:16;9.23;;;3.22;;
13981;SDS011;7065;50.880;5.502;2024-01-15T12:26:42;11.98;;;4.28;;
13981;SDS011;7065;50.880;5.502;2024-01-15T12:29:10;8.20;;;3.70;;
13981;SDS011;7065;50.880;5.502;2024-01-15T12:31:36;7.15;;;3.60;;
13981;SDS011;7065;50.880;5.502;2024-01-15T12:34:02;7.47;;;3.33;;
13981;SDS011;7065;50.880;5.502;2024-01-15T12:36:30;5.85;;;3.20;;
13981;SDS011;7065;50.880;5.502;2024-01-15T12:38:59;4.28;;;3.47;;
13981;SDS011;7065;50.880;5.502;2024-01-15T12:41:25;5.72;;;3.20;;
13981;SDS011;7065;50.880;5.502;2024-01-15T12:43:51;6.43;;;3.20;;
13981;SDS011;7065;50.880;5.502;2024-01-15T12:46:16;7.50;;;3.55;;
13981;SDS011;7065;50.880;5.502;2024-01-15T12:48:44;3.92;;;3.30;;
13981;SDS011;7065;50.880;5.502;2024-01-15T12:51:09;5.03;;;3.53;;
13981;SDS011;7065;50.880;5.502;2024-01-15T12:53:35;4.63;;;2.97;;
13981;SDS011;7065;50.880;5.502;2024-01-15T12:56:01;5.78;;;3.30;;
13981;SDS011;7065;50.880;5.502;2024-01-15T12:58:27;4.85;;;4.22;;
13981;SDS011;7065;50.880;5.502;2024-01-15T13:00:53;7.72;;;4.63;;
13981;SDS011;7065;50.880;5.502;2024-01-15T13:03:19;6.60;;;4.53;;
13981;SDS011;7065;50.880;5.502;2024-01-15T13:05:45;8.70;;;4.60;;
13981;SDS011;7065;50.880;5.502;2024-01-15T13:08:10;7.50;;;4.60;;
13981;SDS011;7065;50.880;5.502;2024-01-15T13:10:37;8.30;;;4.95;;
13981;SDS011;7065;50.880;5.502;2024-01-15T13:13:02;5.95;;;4.40;;
13981;SDS011;7065;50.880;5.502;2024-01-15T13:15:28;8.50;;;5.15;;
13981;SDS011;7065;50.880;5.502;2024-01-15T13:17:55;7.20;;;5.18;;
13981;SDS011;7065;50.880;5.502;2024-01-15T13:20:21;10.10;;;4.85;;
13981;SDS011;7065;50.880;5.502;2024-01-15T13:22:47;8.57;;;4.63;;
13981;SDS011;7065;50.880;5.502;2024-01-15T13:25:12;6.47;;;4.05;;
13981;SDS011;7065;50.880;5.502;2024-01-15T13:27:38;11.13;;;4.53;;
13981;SDS011;7065;50.880;5.502;2024-01-15T13:30:04;4.70;;;3.70;;
13981;SDS011;7065;50.880;5.502;2024-01-15T13:32:32;5.30;;;3.47;;
13981;SDS011;7065;50.880;5.502;2024-01-15T13:34:57;6.80;;;3.25;;
13981;SDS011;7065;50.880;5.502;2024-01-15T13:37:24;5.22;;;3.90;;
13981;SDS011;7065;50.880;5.502;2024-01-15T13:39:50;5.30;;;3.45;;
13981;SDS011;7065;50.880;5.502;2024-01-15T13:42:19;7.78;;;3.35;;
13981;SDS011;7065;50.880;5.502;2024-01-15T13:44:48;4.93;;;2.83;;
13981;SDS011;7065;50.880;5.502;2024-01-15T13:47:14;3.75;;;3.00;;
13981;SDS011;7065;50.880;5.502;2024-01-15T13:49:40;3.97;;;3.30;;
13981;SDS011;7065;50.880;5.502;2024-01-15T13:52:05;5.53;;;3.85;;
13981;SDS011;7065;50.880;5.502;2024-01-15T13:54:31;7.90;;;4.88;;
13981;SDS011;7065;50.880;5.502;2024-01-15T13:56:57;5.18;;;4.00;;
13981;SDS011;7065;50.880;5.502;2024-01-15T13:59:24;5.88;;;3.95;;
13981;SDS011;7065;50.880;5.502;2024-01-15T14:01:50;4.90;;;3.58;;
13981;SDS011;7065;50.880;5.502;2024-01-15T14:04:15;7.43;;;4.20;;
13981;SDS011;7065;50.880;5.502;2024-01-15T14:06:41;5.35;;;3.70;;
13981;SDS011;7065;50.880;5.502;2024-01-15T14:09:07;6.57;;;3.80;;
13981;SDS011;7065;50.880;5.502;2024-01-15T14:11:35;6.53;;;3.70;;
13981;SDS011;7065;50.880;5.502;2024-01-15T14:14:02;4.65;;;3.65;;
13981;SDS011;7065;50.880;5.502;2024-01-15T14:16:28;5.35;;;3.97;;
13981;SDS011;7065;50.880;5.502;2024-01-15T14:18:54;4.85;;;3.15;;
13981;SDS011;7065;50.880;5.502;2024-01-15T14:21:19;6.93;;;2.85;;
13981;SDS011;7065;50.880;5.502;2024-01-15T14:23:45;5.10;;;2.88;;
13981;SDS011;7065;50.880;5.502;2024-01-15T14:26:11;3.55;;;2.47;;
13981;SDS011;7065;50.880;5.502;2024-01-15T14:28:37;3.10;;;2.30;;
13981;SDS011;7065;50.880;5.502;2024-01-15T14:31:03;2.47;;;2.28;;
13981;SDS011;7065;50.880;5.502;2024-01-15T14:33:30;4.13;;;2.25;;
13981;SDS011;7065;50.880;5.502;2024-01-15T14:35:56;3.25;;;2.40;;
13981;SDS011;7065;50.880;5.502;2024-01-15T14:38:23;4.00;;;2.20;;
13981;SDS011;7065;50.880;5.502;2024-01-15T14:40:49;5.85;;;2.40;;
13981;SDS011;7065;50.880;5.502;2024-01-15T14:43:15;3.58;;;2.30;;
13981;SDS011;7065;50.880;5.502;2024-01-15T14:45:40;7.80;;;2.67;;
13981;SDS011;7065;50.880;5.502;2024-01-15T14:48:06;3.78;;;2.05;;
13981;SDS011;7065;50.880;5.502;2024-01-15T14:50:32;2.33;;;2.10;;
13981;SDS011;7065;50.880;5.502;2024-01-15T14:52:57;4.20;;;2.42;;
13981;SDS011;7065;50.880;5.502;2024-01-15T14:55:23;2.63;;;2.03;;
13981;SDS011;7065;50.880;5.502;2024-01-15T14:57:50;4.20;;;2.28;;